Main page
METAR-TAF:

METAR-TAF

Airports :

Marham, England

RAF Marham

latitude: 52-39N, longitude: 000-34E, elevation: 23 m

Current weather observation

The report was made 25 minutes ago, at 08:50 UTC
Wind 12 kt from the Southwest
Temperature 12°C
Humidity 88%
Pressure 1020 hPa
Visibility: 7000 m
Few clouds at a height of 1500 ft
Overcast at a height of 4000 ft
light rain

METAR: EGYM 290850Z 22012KT 7000 -RA FEW015 OVC040 12/10 Q1020 WHT TEMPO SCT014 GRN

Time: 10:15 (09:15 UTC)

Forecast

The report was made 1 hour and 37 minutes ago, at 07:38 UTC
Forecast valid from 29 at 09 UTC to 29 at 18 UTC
Wind 12 kt from the Southwest
Visibility 10 km or more
Broken clouds at a height of 1800 ft
Temporary
from 29 at 09 UTC to 29 at 11 UTC
Broken clouds at a height of 1400 ft
Becoming
from 29 at 12 UTC to 29 at 15 UTC
Broken clouds at a height of 2500 ft

TAF: EGYM 290738Z 2909/2918 22012KT 9999 BKN018 TEMPO 2909/2911 BKN014 BECMG 2912/2915 BKN025

Weather observations and forecasts of more than 4000 airports (METAR and TAF reports).

The available stations are represented by yellow and red dots on the map.

Hover mouse over dot to see the name of the station.

Then click to see weather observations and forecasts.

To change the map : click on the green buttons with a black cross to zoom in, on the green button with a dash to zoom out, or on the green arrows for adjacent maps.


METAR-TAF: